sensor_id;sensor_type;location;lat;lon;timestamp;P1;durP1;ratioP1;P2;durP2;ratioP2
78563;SDS011;67856;47.754;19.088;2023-11-22T00:00:03;9.68;;;4.85;;
78563;SDS011;67856;47.754;19.088;2023-11-22T00:03:09;8.07;;;4.35;;
78563;SDS011;67856;47.754;19.088;2023-11-22T00:06:11;7.72;;;4.63;;
78563;SDS011;67856;47.754;19.088;2023-11-22T00:09:14;8.83;;;5.40;;
78563;SDS011;67856;47.754;19.088;2023-11-22T00:12:16;8.47;;;4.80;;
78563;SDS011;67856;47.754;19.088;2023-11-22T00:15:19;8.30;;;4.70;;
78563;SDS011;67856;47.754;19.088;2023-11-22T00:18:22;8.05;;;4.80;;
78563;SDS011;67856;47.754;19.088;2023-11-22T00:21:25;8.00;;;5.07;;
78563;SDS011;67856;47.754;19.088;2023-11-22T00:24:27;7.57;;;4.67;;
78563;SDS011;67856;47.754;19.088;2023-11-22T00:27:30;8.17;;;4.77;;
78563;SDS011;67856;47.754;19.088;2023-11-22T00:30:36;7.90;;;4.65;;
78563;SDS011;67856;47.754;19.088;2023-11-22T00:33:38;7.63;;;4.60;;
78563;SDS011;67856;47.754;19.088;2023-11-22T00:36:41;8.02;;;4.75;;
78563;SDS011;67856;47.754;19.088;2023-11-22T00:39:43;6.27;;;4.10;;
78563;SDS011;67856;47.754;19.088;2023-11-22T00:42:45;8.93;;;4.77;;
78563;SDS011;67856;47.754;19.088;2023-11-22T00:45:48;8.05;;;4.78;;
78563;SDS011;67856;47.754;19.088;2023-11-22T00:48:51;7.95;;;4.55;;
78563;SDS011;67856;47.754;19.088;2023-11-22T00:51:53;7.47;;;4.72;;
78563;SDS011;67856;47.754;19.088;2023-11-22T00:54:56;7.40;;;4.40;;
78563;SDS011;67856;47.754;19.088;2023-11-22T00:57:58;7.20;;;4.63;;
78563;SDS011;67856;47.754;19.088;2023-11-22T01:01:06;6.85;;;4.25;;
78563;SDS011;67856;47.754;19.088;2023-11-22T01:04:08;7.35;;;4.13;;
78563;SDS011;67856;47.754;19.088;2023-11-22T01:07:11;8.52;;;4.50;;
78563;SDS011;67856;47.754;19.088;2023-11-22T01:10:13;7.57;;;4.83;;
78563;SDS011;67856;47.754;19.088;2023-11-22T01:13:17;6.70;;;4.33;;
78563;SDS011;67856;47.754;19.088;2023-11-22T01:16:20;8.13;;;4.40;;
78563;SDS011;67856;47.754;19.088;2023-11-22T01:19:24;7.32;;;4.30;;
78563;SDS011;67856;47.754;19.088;2023-11-22T01:22:28;6.95;;;4.18;;
78563;SDS011;67856;47.754;19.088;2023-11-22T01:25:30;7.90;;;4.27;;
78563;SDS011;67856;47.754;19.088;2023-11-22T01:28:33;7.10;;;4.20;;
78563;SDS011;67856;47.754;19.088;2023-11-22T01:31:36;7.68;;;4.45;;
78563;SDS011;67856;47.754;19.088;2023-11-22T01:34:38;6.93;;;4.15;;
78563;SDS011;67856;47.754;19.088;2023-11-22T01:37:41;7.80;;;4.22;;
78563;SDS011;67856;47.754;19.088;2023-11-22T01:40:45;8.13;;;4.20;;
78563;SDS011;67856;47.754;19.088;2023-11-22T01:43:50;6.90;;;4.13;;
78563;SDS011;67856;47.754;19.088;2023-11-22T01:46:53;6.53;;;3.95;;
78563;SDS011;67856;47.754;19.088;2023-11-22T01:49:56;6.03;;;3.40;;
78563;SDS011;67856;47.754;19.088;2023-11-22T01:52:59;6.15;;;4.10;;
78563;SDS011;67856;47.754;19.088;2023-11-22T01:56:03;7.00;;;3.90;;
78563;SDS011;67856;47.754;19.088;2023-11-22T01:59:05;7.27;;;4.27;;
78563;SDS011;67856;47.754;19.088;2023-11-22T02:02:08;6.05;;;3.72;;
78563;SDS011;67856;47.754;19.088;2023-11-22T02:05:11;6.53;;;3.78;;
78563;SDS011;67856;47.754;19.088;2023-11-22T02:08:14;6.40;;;3.80;;
78563;SDS011;67856;47.754;19.088;2023-11-22T02:11:17;6.30;;;4.10;;
78563;SDS011;67856;47.754;19.088;2023-11-22T02:14:24;6.30;;;4.00;;
78563;SDS011;67856;47.754;19.088;2023-11-22T02:17:26;7.10;;;4.20;;
78563;SDS011;67856;47.754;19.088;2023-11-22T02:20:30;6.80;;;3.78;;
78563;SDS011;67856;47.754;19.088;2023-11-22T02:23:32;5.80;;;3.75;;
78563;SDS011;67856;47.754;19.088;2023-11-22T02:26:35;7.23;;;4.10;;
78563;SDS011;67856;47.754;19.088;2023-11-22T02:29:38;7.50;;;3.70;;
78563;SDS011;67856;47.754;19.088;2023-11-22T02:32:42;6.15;;;3.72;;
78563;SDS011;67856;47.754;19.088;2023-11-22T02:35:45;6.28;;;4.00;;
78563;SDS011;67856;47.754;19.088;2023-11-22T02:38:48;7.35;;;3.80;;
78563;SDS011;67856;47.754;19.088;2023-11-22T02:41:50;6.47;;;3.47;;
78563;SDS011;67856;47.754;19.088;2023-11-22T02:44:53;6.40;;;4.00;;
78563;SDS011;67856;47.754;19.088;2023-11-22T02:47:55;5.95;;;3.53;;
78563;SDS011;67856;47.754;19.088;2023-11-22T02:50:58;5.93;;;3.70;;
78563;SDS011;67856;47.754;19.088;2023-11-22T02:54:00;7.32;;;4.13;;
78563;SDS011;67856;47.754;19.088;2023-11-22T02:57:03;5.93;;;3.80;;
78563;SDS011;67856;47.754;19.088;2023-11-22T03:00:06;7.20;;;3.73;;
78563;SDS011;67856;47.754;19.088;2023-11-22T03:03:10;6.05;;;3.65;;
78563;SDS011;67856;47.754;19.088;2023-11-22T03:06:14;7.00;;;3.78;;
78563;SDS011;67856;47.754;19.088;2023-11-22T03:09:16;5.90;;;3.72;;
78563;SDS011;67856;47.754;19.088;2023-11-22T03:12:19;7.50;;;3.80;;
78563;SDS011;67856;47.754;19.088;2023-11-22T03:15:22;5.97;;;3.67;;
78563;SDS011;67856;47.754;19.088;2023-11-22T03:18:24;6.50;;;3.55;;
78563;SDS011;67856;47.754;19.088;2023-11-22T03:21:28;5.43;;;3.47;;
78563;SDS011;67856;47.754;19.088;2023-11-22T03:24:30;6.68;;;3.42;;
78563;SDS011;67856;47.754;19.088;2023-11-22T03:27:33;5.37;;;3.30;;
78563;SDS011;67856;47.754;19.088;2023-11-22T03:30:35;5.30;;;3.37;;
78563;SDS011;67856;47.754;19.088;2023-11-22T03:33:38;5.75;;;3.72;;
78563;SDS011;67856;47.754;19.088;2023-11-22T03:36:40;5.40;;;3.13;;
78563;SDS011;67856;47.754;19.088;2023-11-22T03:39:43;5.90;;;3.30;;
78563;SDS011;67856;47.754;19.088;2023-11-22T03:42:50;5.53;;;3.30;;
78563;SDS011;67856;47.754;19.088;2023-11-22T03:45:53;5.23;;;3.30;;
78563;SDS011;67856;47.754;19.088;2023-11-22T03:48:55;4.90;;;3.22;;
78563;SDS011;67856;47.754;19.088;2023-11-22T03:51:58;6.60;;;3.25;;
78563;SDS011;67856;47.754;19.088;2023-11-22T03:55:00;5.35;;;3.40;;
78563;SDS011;67856;47.754;19.088;2023-11-22T03:58:03;5.50;;;3.50;;
78563;SDS011;67856;47.754;19.088;2023-11-22T04:01:05;5.70;;;3.50;;
78563;SDS011;67856;47.754;19.088;2023-11-22T04:04:08;4.70;;;3.10;;
78563;SDS011;67856;47.754;19.088;2023-11-22T04:07:12;4.40;;;3.13;;
78563;SDS011;67856;47.754;19.088;2023-11-22T04:10:14;5.80;;;2.90;;
78563;SDS011;67856;47.754;19.088;2023-11-22T04:13:17;4.20;;;3.20;;
78563;SDS011;67856;47.754;19.088;2023-11-22T04:16:20;5.00;;;3.00;;
78563;SDS011;67856;47.754;19.088;2023-11-22T04:19:23;4.47;;;2.97;;
78563;SDS011;67856;47.754;19.088;2023-11-22T04:22:26;6.30;;;3.20;;
78563;SDS011;67856;47.754;19.088;2023-11-22T04:25:28;5.13;;;3.08;;
78563;SDS011;67856;47.754;19.088;2023-11-22T04:28:31;5.27;;;3.10;;
78563;SDS011;67856;47.754;19.088;2023-11-22T04:31:33;4.83;;;2.80;;
78563;SDS011;67856;47.754;19.088;2023-11-22T04:34:36;3.72;;;2.72;;
78563;SDS011;67856;47.754;19.088;2023-11-22T04:37:38;4.25;;;2.88;;
78563;SDS011;67856;47.754;19.088;2023-11-22T04:40:40;4.93;;;3.30;;
78563;SDS011;67856;47.754;19.088;2023-11-22T04:43:44;3.93;;;2.73;;
78563;SDS011;67856;47.754;19.088;2023-11-22T04:46:47;4.53;;;2.70;;
78563;SDS011;67856;47.754;19.088;2023-11-22T04:49:49;4.25;;;2.60;;
78563;SDS011;67856;47.754;19.088;2023-11-22T04:52:52;4.50;;;2.72;;
78563;SDS011;67856;47.754;19.088;2023-11-22T04:55:54;4.07;;;2.80;;
78563;SDS011;67856;47.754;19.088;2023-11-22T04:58:57;3.87;;;2.60;;
78563;SDS011;67856;47.754;19.088;2023-11-22T05:01:59;4.70;;;2.80;;
78563;SDS011;67856;47.754;19.088;2023-11-22T05:05:02;3.78;;;2.65;;
78563;SDS011;67856;47.754;19.088;2023-11-22T05:08:05;3.70;;;2.72;;
78563;SDS011;67856;47.754;19.088;2023-11-22T05:11:07;4.00;;;2.80;;
78563;SDS011;67856;47.754;19.088;2023-11-22T05:14:10;9.10;;;2.50;;
78563;SDS011;67856;47.754;19.088;2023-11-22T05:17:13;7.07;;;3.17;;
78563;SDS011;67856;47.754;19.088;2023-11-22T05:20:15;6.55;;;2.90;;
78563;SDS011;67856;47.754;19.088;2023-11-22T05:23:18;7.28;;;3.00;;
78563;SDS011;67856;47.754;19.088;2023-11-22T05:26:20;4.28;;;2.92;;
78563;SDS011;67856;47.754;19.088;2023-11-22T05:29:23;5.30;;;2.90;;
78563;SDS011;67856;47.754;19.088;2023-11-22T05:32:31;8.40;;;2.93;;
78563;SDS011;67856;47.754;19.088;2023-11-22T05:35:33;4.95;;;3.35;;
78563;SDS011;67856;47.754;19.088;2023-11-22T05:38:36;6.80;;;2.90;;
78563;SDS011;67856;47.754;19.088;2023-11-22T05:41:39;7.57;;;3.10;;
78563;SDS011;67856;47.754;19.088;2023-11-22T05:44:42;4.43;;;2.60;;
78563;SDS011;67856;47.754;19.088;2023-11-22T05:47:44;5.83;;;2.80;;
78563;SDS011;67856;47.754;19.088;2023-11-22T05:50:47;5.13;;;2.67;;
78563;SDS011;67856;47.754;19.088;2023-11-22T05:53:50;5.90;;;2.97;;
78563;SDS011;67856;47.754;19.088;2023-11-22T05:56:52;6.22;;;2.65;;
78563;SDS011;67856;47.754;19.088;2023-11-22T05:59:56;7.70;;;2.80;;
78563;SDS011;67856;47.754;19.088;2023-11-22T06:02:59;4.37;;;2.60;;
78563;SDS011;67856;47.754;19.088;2023-11-22T06:06:02;5.53;;;2.88;;
78563;SDS011;67856;47.754;19.088;2023-11-22T06:09:05;5.53;;;2.75;;
78563;SDS011;67856;47.754;19.088;2023-11-22T06:12:09;4.57;;;2.30;;
78563;SDS011;67856;47.754;19.088;2023-11-22T06:15:11;5.07;;;2.50;;
78563;SDS011;67856;47.754;19.088;2023-11-22T06:18:14;4.40;;;2.67;;
78563;SDS011;67856;47.754;19.088;2023-11-22T06:21:17;5.40;;;3.00;;
78563;SDS011;67856;47.754;19.088;2023-11-22T06:24:21;4.07;;;2.50;;
78563;SDS011;67856;47.754;19.088;2023-11-22T06:27:27;5.10;;;2.35;;
78563;SDS011;67856;47.754;19.088;2023-11-22T06:30:34;6.53;;;2.50;;
78563;SDS011;67856;47.754;19.088;2023-11-22T06:33:37;3.97;;;2.50;;
78563;SDS011;67856;47.754;19.088;2023-11-22T06:36:40;6.13;;;2.47;;
78563;SDS011;67856;47.754;19.088;2023-11-22T06:39:43;4.82;;;2.40;;
78563;SDS011;67856;47.754;19.088;2023-11-22T06:42:46;7.38;;;2.70;;
78563;SDS011;67856;47.754;19.088;2023-11-22T06:45:49;5.57;;;2.90;;
78563;SDS011;67856;47.754;19.088;2023-11-22T06:48:52;8.10;;;2.80;;
78563;SDS011;67856;47.754;19.088;2023-11-22T06:51:55;7.90;;;2.80;;
78563;SDS011;67856;47.754;19.088;2023-11-22T06:54:58;12.45;;;3.05;;
78563;SDS011;67856;47.754;19.088;2023-11-22T06:58:01;13.05;;;3.35;;
78563;SDS011;67856;47.754;19.088;2023-11-22T07:01:03;11.20;;;2.90;;
78563;SDS011;67856;47.754;19.088;2023-11-22T07:04:06;8.30;;;2.90;;
78563;SDS011;67856;47.754;19.088;2023-11-22T07:07:09;10.55;;;2.72;;
78563;SDS011;67856;47.754;19.088;2023-11-22T07:10:13;12.43;;;3.20;;
78563;SDS011;67856;47.754;19.088;2023-11-22T07:13:17;8.18;;;2.90;;
78563;SDS011;67856;47.754;19.088;2023-11-22T07:16:21;10.10;;;3.20;;
78563;SDS011;67856;47.754;19.088;2023-11-22T07:19:24;15.03;;;2.87;;
78563;SDS011;67856;47.754;19.088;2023-11-22T07:22:26;11.18;;;3.15;;
78563;SDS011;67856;47.754;19.088;2023-11-22T07:25:30;9.57;;;3.03;;
78563;SDS011;67856;47.754;19.088;2023-11-22T07:28:33;12.23;;;3.00;;
78563;SDS011;67856;47.754;19.088;2023-11-22T07:31:39;9.57;;;3.00;;
78563;SDS011;67856;47.754;19.088;2023-11-22T07:34:42;13.43;;;3.87;;
78563;SDS011;67856;47.754;19.088;2023-11-22T07:37:45;9.60;;;2.97;;
78563;SDS011;67856;47.754;19.088;2023-11-22T07:40:52;15.77;;;3.40;;
78563;SDS011;67856;47.754;19.088;2023-11-22T07:43:55;12.57;;;3.38;;
78563;SDS011;67856;47.754;19.088;2023-11-22T07:46:58;15.77;;;3.30;;
78563;SDS011;67856;47.754;19.088;2023-11-22T07:50:01;10.73;;;3.67;;
78563;SDS011;67856;47.754;19.088;2023-11-22T07:53:05;8.32;;;2.90;;
78563;SDS011;67856;47.754;19.088;2023-11-22T07:56:11;9.48;;;3.00;;
78563;SDS011;67856;47.754;19.088;2023-11-22T07:59:18;16.67;;;4.03;;
78563;SDS011;67856;47.754;19.088;2023-11-22T08:02:21;10.60;;;3.00;;
78563;SDS011;67856;47.754;19.088;2023-11-22T08:05:24;13.23;;;3.47;;
78563;SDS011;67856;47.754;19.088;2023-11-22T08:08:30;17.35;;;3.30;;
78563;SDS011;67856;47.754;19.088;2023-11-22T08:11:37;11.38;;;3.13;;
78563;SDS011;67856;47.754;19.088;2023-11-22T08:14:53;7.55;;;3.20;;
78563;SDS011;67856;47.754;19.088;2023-11-22T08:17:58;15.47;;;3.40;;
78563;SDS011;67856;47.754;19.088;2023-11-22T08:21:02;7.13;;;3.03;;
78563;SDS011;67856;47.754;19.088;2023-11-22T08:24:06;8.60;;;3.20;;
78563;SDS011;67856;47.754;19.088;2023-11-22T08:27:09;13.18;;;3.40;;
78563;SDS011;67856;47.754;19.088;2023-11-22T08:30:11;8.52;;;3.10;;
78563;SDS011;67856;47.754;19.088;2023-11-22T08:33:18;10.30;;;3.10;;
78563;SDS011;67856;47.754;19.088;2023-11-22T08:36:21;9.77;;;3.27;;
78563;SDS011;67856;47.754;19.088;2023-11-22T08:39:23;10.88;;;3.33;;
78563;SDS011;67856;47.754;19.088;2023-11-22T08:42:26;7.70;;;3.10;;
78563;SDS011;67856;47.754;19.088;2023-11-22T08:45:29;9.77;;;2.95;;
78563;SDS011;67856;47.754;19.088;2023-11-22T08:48:31;8.60;;;3.20;;
78563;SDS011;67856;47.754;19.088;2023-11-22T08:51:37;12.37;;;2.60;;
78563;SDS011;67856;47.754;19.088;2023-11-22T08:54:39;8.55;;;2.90;;
78563;SDS011;67856;47.754;19.088;2023-11-22T08:57:43;51.65;;;5.28;;
78563;SDS011;67856;47.754;19.088;2023-11-22T09:00:46;45.97;;;4.90;;
78563;SDS011;67856;47.754;19.088;2023-11-22T09:03:49;32.17;;;4.43;;
78563;SDS011;67856;47.754;19.088;2023-11-22T09:06:52;118.70;;;11.20;;
78563;SDS011;67856;47.754;19.088;2023-11-22T09:09:58;49.15;;;5.60;;
78563;SDS011;67856;47.754;19.088;2023-11-22T09:13:01;34.60;;;4.68;;
78563;SDS011;67856;47.754;19.088;2023-11-22T09:16:04;32.53;;;5.25;;
78563;SDS011;67856;47.754;19.088;2023-11-22T09:19:07;37.60;;;4.30;;
78563;SDS011;67856;47.754;19.088;2023-11-22T09:22:10;28.27;;;3.93;;
78563;SDS011;67856;47.754;19.088;2023-11-22T09:25:14;30.45;;;4.35;;
78563;SDS011;67856;47.754;19.088;2023-11-22T09:28:23;24.25;;;3.80;;
78563;SDS011;67856;47.754;19.088;2023-11-22T09:31:25;29.75;;;4.30;;
78563;SDS011;67856;47.754;19.088;2023-11-22T09:34:28;25.60;;;3.83;;
78563;SDS011;67856;47.754;19.088;2023-11-22T09:37:32;21.73;;;3.50;;
78563;SDS011;67856;47.754;19.088;2023-11-22T09:40:35;25.08;;;3.78;;
78563;SDS011;67856;47.754;19.088;2023-11-22T09:43:38;27.98;;;4.78;;
78563;SDS011;67856;47.754;19.088;2023-11-22T09:46:42;29.33;;;3.95;;
78563;SDS011;67856;47.754;19.088;2023-11-22T09:49:44;25.33;;;3.40;;
78563;SDS011;67856;47.754;19.088;2023-11-22T09:52:51;15.37;;;3.10;;
78563;SDS011;67856;47.754;19.088;2023-11-22T09:55:58;23.30;;;3.55;;
78563;SDS011;67856;47.754;19.088;2023-11-22T09:59:01;20.77;;;3.75;;
78563;SDS011;67856;47.754;19.088;2023-11-22T10:02:06;22.08;;;3.53;;
78563;SDS011;67856;47.754;19.088;2023-11-22T10:05:09;30.63;;;3.80;;
78563;SDS011;67856;47.754;19.088;2023-11-22T10:08:11;17.93;;;3.57;;
78563;SDS011;67856;47.754;19.088;2023-11-22T10:11:14;17.70;;;3.63;;
78563;SDS011;67856;47.754;19.088;2023-11-22T10:14:24;22.00;;;3.50;;
78563;SDS011;67856;47.754;19.088;2023-11-22T10:17:29;20.15;;;3.38;;
78563;SDS011;67856;47.754;19.088;2023-11-22T10:20:38;15.63;;;3.23;;
78563;SDS011;67856;47.754;19.088;2023-11-22T10:23:42;21.97;;;4.73;;
78563;SDS011;67856;47.754;19.088;2023-11-22T10:26:46;16.48;;;2.88;;
78563;SDS011;67856;47.754;19.088;2023-11-22T10:29:49;18.58;;;2.83;;
78563;SDS011;67856;47.754;19.088;2023-11-22T10:32:52;14.23;;;3.00;;
78563;SDS011;67856;47.754;19.088;2023-11-22T10:35:55;21.53;;;3.57;;
78563;SDS011;67856;47.754;19.088;2023-11-22T10:38:58;15.00;;;3.37;;
78563;SDS011;67856;47.754;19.088;2023-11-22T10:42:02;13.88;;;3.33;;
78563;SDS011;67856;47.754;19.088;2023-11-22T10:45:09;13.63;;;2.88;;
78563;SDS011;67856;47.754;19.088;2023-11-22T10:48:13;11.25;;;2.80;;
78563;SDS011;67856;47.754;19.088;2023-11-22T10:51:19;16.97;;;2.90;;
78563;SDS011;67856;47.754;19.088;2023-11-22T10:54:23;15.63;;;3.07;;
78563;SDS011;67856;47.754;19.088;2023-11-22T10:57:26;15.25;;;2.85;;
78563;SDS011;67856;47.754;19.088;2023-11-22T11:00:33;16.75;;;3.40;;
78563;SDS011;67856;47.754;19.088;2023-11-22T11:03:37;11.73;;;2.70;;
78563;SDS011;67856;47.754;19.088;2023-11-22T11:06:42;14.90;;;3.20;;
78563;SDS011;67856;47.754;19.088;2023-11-22T11:09:47;12.53;;;2.80;;
78563;SDS011;67856;47.754;19.088;2023-11-22T11:12:53;13.60;;;3.00;;
78563;SDS011;67856;47.754;19.088;2023-11-22T11:15:58;11.63;;;2.65;;
78563;SDS011;67856;47.754;19.088;2023-11-22T11:19:01;9.73;;;2.80;;
78563;SDS011;67856;47.754;19.088;2023-11-22T11:22:07;11.20;;;2.87;;
78563;SDS011;67856;47.754;19.088;2023-11-22T11:25:13;14.90;;;2.83;;
78563;SDS011;67856;47.754;19.088;2023-11-22T11:28:18;12.88;;;3.20;;
78563;SDS011;67856;47.754;19.088;2023-11-22T11:31:22;9.82;;;2.90;;
78563;SDS011;67856;47.754;19.088;2023-11-22T11:34:26;11.45;;;2.63;;
78563;SDS011;67856;47.754;19.088;2023-11-22T11:37:29;9.13;;;2.57;;
78563;SDS011;67856;47.754;19.088;2023-11-22T11:40:33;8.90;;;2.80;;
78563;SDS011;67856;47.754;19.088;2023-11-22T11:43:43;13.32;;;2.90;;
78563;SDS011;67856;47.754;19.088;2023-11-22T11:46:53;19.10;;;2.88;;
78563;SDS011;67856;47.754;19.088;2023-11-22T11:49:56;10.48;;;2.50;;
78563;SDS011;67856;47.754;19.088;2023-11-22T11:52:59;12.30;;;2.73;;
78563;SDS011;67856;47.754;19.088;2023-11-22T11:56:01;13.70;;;2.80;;
78563;SDS011;67856;47.754;19.088;2023-11-22T11:59:04;10.70;;;2.95;;
78563;SDS011;67856;47.754;19.088;2023-11-22T12:02:08;11.98;;;2.63;;
78563;SDS011;67856;47.754;19.088;2023-11-22T12:05:11;10.73;;;2.35;;
78563;SDS011;67856;47.754;19.088;2023-11-22T12:08:13;12.23;;;2.50;;
78563;SDS011;67856;47.754;19.088;2023-11-22T12:11:18;10.20;;;3.10;;
78563;SDS011;67856;47.754;19.088;2023-11-22T12:14:20;10.68;;;2.30;;
78563;SDS011;67856;47.754;19.088;2023-11-22T12:17:25;8.48;;;2.58;;
78563;SDS011;67856;47.754;19.088;2023-11-22T12:20:29;9.43;;;2.63;;
78563;SDS011;67856;47.754;19.088;2023-11-22T12:23:34;8.47;;;2.53;;
78563;SDS011;67856;47.754;19.088;2023-11-22T12:26:39;9.97;;;2.43;;
78563;SDS011;67856;47.754;19.088;2023-11-22T12:29:44;11.27;;;2.30;;
78563;SDS011;67856;47.754;19.088;2023-11-22T12:32:49;10.48;;;2.15;;
78563;SDS011;67856;47.754;19.088;2023-11-22T12:35:51;13.75;;;3.10;;
78563;SDS011;67856;47.754;19.088;2023-11-22T12:38:56;12.13;;;2.27;;
78563;SDS011;67856;47.754;19.088;2023-11-22T12:42:01;6.73;;;1.87;;
78563;SDS011;67856;47.754;19.088;2023-11-22T12:45:22;11.40;;;2.30;;
78563;SDS011;67856;47.754;19.088;2023-11-22T12:48:26;6.85;;;2.45;;
78563;SDS011;67856;47.754;19.088;2023-11-22T12:51:31;10.68;;;2.42;;
78563;SDS011;67856;47.754;19.088;2023-11-22T12:54:34;9.33;;;2.30;;
78563;SDS011;67856;47.754;19.088;2023-11-22T12:57:37;14.80;;;2.50;;
78563;SDS011;67856;47.754;19.088;2023-11-22T13:00:40;7.07;;;2.08;;
78563;SDS011;67856;47.754;19.088;2023-11-22T13:03:43;7.35;;;2.03;;
78563;SDS011;67856;47.754;19.088;2023-11-22T13:06:46;8.10;;;2.55;;
78563;SDS011;67856;47.754;19.088;2023-11-22T13:09:49;12.93;;;2.40;;
78563;SDS011;67856;47.754;19.088;2023-11-22T13:12:52;10.03;;;2.40;;
78563;SDS011;67856;47.754;19.088;2023-11-22T13:15:56;11.27;;;2.63;;
78563;SDS011;67856;47.754;19.088;2023-11-22T13:18:59;12.68;;;2.97;;
78563;SDS011;67856;47.754;19.088;2023-11-22T13:22:01;12.23;;;2.30;;
78563;SDS011;67856;47.754;19.088;2023-11-22T13:25:09;12.00;;;2.20;;
78563;SDS011;67856;47.754;19.088;2023-11-22T13:28:21;12.03;;;2.20;;
78563;SDS011;67856;47.754;19.088;2023-11-22T13:31:24;10.07;;;2.10;;
78563;SDS011;67856;47.754;19.088;2023-11-22T13:34:26;12.63;;;2.80;;
78563;SDS011;67856;47.754;19.088;2023-11-22T13:37:29;8.45;;;2.22;;
78563;SDS011;67856;47.754;19.088;2023-11-22T13:40:34;8.47;;;2.30;;
78563;SDS011;67856;47.754;19.088;2023-11-22T13:43:36;10.07;;;2.47;;
78563;SDS011;67856;47.754;19.088;2023-11-22T13:46:39;9.90;;;2.25;;
78563;SDS011;67856;47.754;19.088;2023-11-22T13:49:44;13.77;;;2.70;;
78563;SDS011;67856;47.754;19.088;2023-11-22T13:52:47;12.43;;;2.40;;
78563;SDS011;67856;47.754;19.088;2023-11-22T13:55:50;11.17;;;2.10;;
78563;SDS011;67856;47.754;19.088;2023-11-22T13:59:03;9.43;;;2.40;;
78563;SDS011;67856;47.754;19.088;2023-11-22T14:02:07;6.22;;;2.15;;
78563;SDS011;67856;47.754;19.088;2023-11-22T14:05:10;10.63;;;2.05;;
78563;SDS011;67856;47.754;19.088;2023-11-22T14:08:14;11.55;;;2.50;;
78563;SDS011;67856;47.754;19.088;2023-11-22T14:11:19;9.27;;;2.37;;
78563;SDS011;67856;47.754;19.088;2023-11-22T14:14:21;12.43;;;2.97;;
78563;SDS011;67856;47.754;19.088;2023-11-22T14:17:24;7.35;;;2.30;;
78563;SDS011;67856;47.754;19.088;2023-11-22T14:20:27;8.52;;;2.10;;
78563;SDS011;67856;47.754;19.088;2023-11-22T14:23:31;10.77;;;2.80;;
78563;SDS011;67856;47.754;19.088;2023-11-22T14:26:35;20.27;;;3.40;;
78563;SDS011;67856;47.754;19.088;2023-11-22T14:29:39;14.60;;;3.30;;
78563;SDS011;67856;47.754;19.088;2023-11-22T14:32:43;20.25;;;3.53;;
78563;SDS011;67856;47.754;19.088;2023-11-22T14:35:46;17.77;;;3.22;;
78563;SDS011;67856;47.754;19.088;2023-11-22T14:38:48;14.80;;;3.70;;
78563;SDS011;67856;47.754;19.088;2023-11-22T14:41:56;17.23;;;3.90;;
78563;SDS011;67856;47.754;19.088;2023-11-22T14:45:04;13.03;;;3.40;;
78563;SDS011;67856;47.754;19.088;2023-11-22T14:48:08;21.90;;;4.05;;
78563;SDS011;67856;47.754;19.088;2023-11-22T14:51:13;12.38;;;3.75;;
78563;SDS011;67856;47.754;19.088;2023-11-22T14:54:16;21.98;;;3.80;;
78563;SDS011;67856;47.754;19.088;2023-11-22T14:57:18;18.60;;;3.63;;
78563;SDS011;67856;47.754;19.088;2023-11-22T15:00:21;19.90;;;3.50;;
78563;SDS011;67856;47.754;19.088;2023-11-22T15:03:23;13.10;;;3.60;;
78563;SDS011;67856;47.754;19.088;2023-11-22T15:06:28;17.65;;;3.63;;
78563;SDS011;67856;47.754;19.088;2023-11-22T15:09:31;16.30;;;4.10;;
78563;SDS011;67856;47.754;19.088;2023-11-22T15:12:36;11.83;;;3.50;;
78563;SDS011;67856;47.754;19.088;2023-11-22T15:15:41;18.40;;;3.70;;
78563;SDS011;67856;47.754;19.088;2023-11-22T15:18:43;19.63;;;3.80;;
78563;SDS011;67856;47.754;19.088;2023-11-22T15:21:46;15.07;;;3.45;;
78563;SDS011;67856;47.754;19.088;2023-11-22T15:24:50;14.25;;;3.65;;
78563;SDS011;67856;47.754;19.088;2023-11-22T15:27:52;15.83;;;4.23;;
78563;SDS011;67856;47.754;19.088;2023-11-22T15:30:55;19.03;;;3.33;;
78563;SDS011;67856;47.754;19.088;2023-11-22T15:34:02;12.18;;;2.90;;
78563;SDS011;67856;47.754;19.088;2023-11-22T15:37:05;12.80;;;3.38;;
78563;SDS011;67856;47.754;19.088;2023-11-22T15:40:08;12.02;;;3.40;;
78563;SDS011;67856;47.754;19.088;2023-11-22T15:43:12;11.50;;;2.97;;
78563;SDS011;67856;47.754;19.088;2023-11-22T15:46:16;13.37;;;4.07;;
78563;SDS011;67856;47.754;19.088;2023-11-22T15:49:21;12.07;;;2.95;;
78563;SDS011;67856;47.754;19.088;2023-11-22T15:52:23;14.13;;;3.33;;
78563;SDS011;67856;47.754;19.088;2023-11-22T15:55:26;7.60;;;2.97;;
78563;SDS011;67856;47.754;19.088;2023-11-22T15:58:29;15.33;;;3.00;;
78563;SDS011;67856;47.754;19.088;2023-11-22T16:01:31;6.97;;;3.23;;
78563;SDS011;67856;47.754;19.088;2023-11-22T16:04:34;9.07;;;2.90;;
78563;SDS011;67856;47.754;19.088;2023-11-22T16:07:36;9.60;;;3.65;;
78563;SDS011;67856;47.754;19.088;2023-11-22T16:10:39;9.25;;;3.00;;
78563;SDS011;67856;47.754;19.088;2023-11-22T16:13:43;9.93;;;2.87;;
78563;SDS011;67856;47.754;19.088;2023-11-22T16:16:47;7.87;;;3.10;;
78563;SDS011;67856;47.754;19.088;2023-11-22T16:19:49;8.27;;;3.00;;
78563;SDS011;67856;47.754;19.088;2023-11-22T16:22:52;12.65;;;2.85;;
78563;SDS011;67856;47.754;19.088;2023-11-22T16:25:54;9.57;;;3.03;;
78563;SDS011;67856;47.754;19.088;2023-11-22T16:28:57;12.13;;;3.20;;
78563;SDS011;67856;47.754;19.088;2023-11-22T16:32:00;9.83;;;3.07;;
78563;SDS011;67856;47.754;19.088;2023-11-22T16:35:03;12.68;;;3.00;;
78563;SDS011;67856;47.754;19.088;2023-11-22T16:38:06;10.32;;;2.78;;
78563;SDS011;67856;47.754;19.088;2023-11-22T16:41:09;11.43;;;3.58;;
78563;SDS011;67856;47.754;19.088;2023-11-22T16:44:14;10.30;;;3.27;;
78563;SDS011;67856;47.754;19.088;2023-11-22T16:47:17;10.13;;;3.33;;
78563;SDS011;67856;47.754;19.088;2023-11-22T16:50:20;13.23;;;3.58;;
78563;SDS011;67856;47.754;19.088;2023-11-22T16:53:23;11.70;;;3.25;;
78563;SDS011;67856;47.754;19.088;2023-11-22T16:56:26;12.70;;;3.30;;
78563;SDS011;67856;47.754;19.088;2023-11-22T16:59:28;10.37;;;3.33;;
78563;SDS011;67856;47.754;19.088;2023-11-22T17:02:31;12.60;;;3.10;;
78563;SDS011;67856;47.754;19.088;2023-11-22T17:05:34;16.63;;;3.35;;
78563;SDS011;67856;47.754;19.088;2023-11-22T17:08:36;15.68;;;3.50;;
78563;SDS011;67856;47.754;19.088;2023-11-22T17:11:39;14.75;;;3.45;;
78563;SDS011;67856;47.754;19.088;2023-11-22T17:14:43;10.73;;;2.93;;
78563;SDS011;67856;47.754;19.088;2023-11-22T17:17:45;10.83;;;3.27;;
78563;SDS011;67856;47.754;19.088;2023-11-22T17:20:48;9.88;;;2.90;;
78563;SDS011;67856;47.754;19.088;2023-11-22T17:23:51;11.75;;;3.08;;
78563;SDS011;67856;47.754;19.088;2023-11-22T17:26:53;8.90;;;3.17;;
78563;SDS011;67856;47.754;19.088;2023-11-22T17:29:56;8.93;;;3.07;;
78563;SDS011;67856;47.754;19.088;2023-11-22T17:32:59;10.27;;;3.17;;
78563;SDS011;67856;47.754;19.088;2023-11-22T17:36:03;9.20;;;3.42;;
78563;SDS011;67856;47.754;19.088;2023-11-22T17:39:07;8.07;;;2.70;;
78563;SDS011;67856;47.754;19.088;2023-11-22T17:42:10;7.68;;;3.00;;
78563;SDS011;67856;47.754;19.088;2023-11-22T17:45:13;8.37;;;2.90;;
78563;SDS011;67856;47.754;19.088;2023-11-22T17:48:17;8.10;;;2.90;;
78563;SDS011;67856;47.754;19.088;2023-11-22T17:51:20;8.35;;;3.10;;
78563;SDS011;67856;47.754;19.088;2023-11-22T17:54:23;6.80;;;2.75;;
78563;SDS011;67856;47.754;19.088;2023-11-22T17:57:25;9.20;;;3.13;;
78563;SDS011;67856;47.754;19.088;2023-11-22T18:00:29;7.57;;;3.13;;